sensor_id;sensor_type;location;lat;lon;timestamp;P1;durP1;ratioP1;P2;durP2;ratioP2
66212;SDS011;53015;50.046;8.238;2023-10-13T00:01:55;15.80;;;6.95;;
66212;SDS011;53015;50.046;8.238;2023-10-13T00:04:22;12.25;;;6.53;;
66212;SDS011;53015;50.046;8.238;2023-10-13T00:06:49;16.00;;;7.05;;
66212;SDS011;53015;50.046;8.238;2023-10-13T00:09:15;15.45;;;7.30;;
66212;SDS011;53015;50.046;8.238;2023-10-13T00:11:41;12.90;;;7.40;;
66212;SDS011;53015;50.046;8.238;2023-10-13T00:14:07;14.90;;;7.85;;
66212;SDS011;53015;50.046;8.238;2023-10-13T00:16:32;16.00;;;6.75;;
66212;SDS011;53015;50.046;8.238;2023-10-13T00:18:58;18.95;;;7.65;;
66212;SDS011;53015;50.046;8.238;2023-10-13T00:21:23;11.43;;;7.20;;
66212;SDS011;53015;50.046;8.238;2023-10-13T00:23:50;12.70;;;7.20;;
66212;SDS011;53015;50.046;8.238;2023-10-13T00:26:16;13.60;;;6.72;;
66212;SDS011;53015;50.046;8.238;2023-10-13T00:28:41;13.05;;;6.72;;
66212;SDS011;53015;50.046;8.238;2023-10-13T00:31:07;13.48;;;7.03;;
66212;SDS011;53015;50.046;8.238;2023-10-13T00:33:32;13.07;;;6.70;;
66212;SDS011;53015;50.046;8.238;2023-10-13T00:35:58;14.77;;;6.93;;
66212;SDS011;53015;50.046;8.238;2023-10-13T00:38:24;12.73;;;7.32;;
66212;SDS011;53015;50.046;8.238;2023-10-13T00:40:51;17.80;;;7.18;;
66212;SDS011;53015;50.046;8.238;2023-10-13T00:43:17;12.57;;;6.90;;
66212;SDS011;53015;50.046;8.238;2023-10-13T00:45:43;13.35;;;6.38;;
66212;SDS011;53015;50.046;8.238;2023-10-13T00:48:09;11.80;;;7.00;;
66212;SDS011;53015;50.046;8.238;2023-10-13T00:50:34;11.73;;;7.43;;
66212;SDS011;53015;50.046;8.238;2023-10-13T00:53:00;16.15;;;7.00;;
66212;SDS011;53015;50.046;8.238;2023-10-13T00:55:25;15.57;;;7.65;;
66212;SDS011;53015;50.046;8.238;2023-10-13T00:57:52;13.75;;;7.05;;
66212;SDS011;53015;50.046;8.238;2023-10-13T01:00:20;14.32;;;6.95;;
66212;SDS011;53015;50.046;8.238;2023-10-13T01:02:46;12.90;;;6.80;;
66212;SDS011;53015;50.046;8.238;2023-10-13T01:05:11;10.63;;;6.57;;
66212;SDS011;53015;50.046;8.238;2023-10-13T01:07:37;14.65;;;6.90;;
66212;SDS011;53015;50.046;8.238;2023-10-13T01:10:02;11.05;;;6.57;;
66212;SDS011;53015;50.046;8.238;2023-10-13T01:12:29;11.07;;;6.30;;
66212;SDS011;53015;50.046;8.238;2023-10-13T01:14:55;16.48;;;6.40;;
66212;SDS011;53015;50.046;8.238;2023-10-13T01:17:21;10.43;;;6.97;;
66212;SDS011;53015;50.046;8.238;2023-10-13T01:19:47;17.75;;;7.00;;
66212;SDS011;53015;50.046;8.238;2023-10-13T01:22:12;10.77;;;6.97;;
66212;SDS011;53015;50.046;8.238;2023-10-13T01:24:39;10.57;;;6.53;;
66212;SDS011;53015;50.046;8.238;2023-10-13T01:27:05;12.75;;;6.75;;
66212;SDS011;53015;50.046;8.238;2023-10-13T01:29:32;9.23;;;6.32;;
66212;SDS011;53015;50.046;8.238;2023-10-13T01:31:57;17.13;;;7.07;;
66212;SDS011;53015;50.046;8.238;2023-10-13T01:34:23;12.20;;;6.07;;
66212;SDS011;53015;50.046;8.238;2023-10-13T01:36:48;11.15;;;6.60;;
66212;SDS011;53015;50.046;8.238;2023-10-13T01:39:14;13.23;;;6.10;;
66212;SDS011;53015;50.046;8.238;2023-10-13T01:41:41;10.90;;;6.57;;
66212;SDS011;53015;50.046;8.238;2023-10-13T01:44:06;13.90;;;6.60;;
66212;SDS011;53015;50.046;8.238;2023-10-13T01:46:32;15.77;;;6.25;;
66212;SDS011;53015;50.046;8.238;2023-10-13T01:48:57;12.57;;;5.60;;
66212;SDS011;53015;50.046;8.238;2023-10-13T01:51:23;12.70;;;6.30;;
66212;SDS011;53015;50.046;8.238;2023-10-13T01:53:48;13.65;;;5.95;;
66212;SDS011;53015;50.046;8.238;2023-10-13T01:56:14;10.00;;;5.75;;
66212;SDS011;53015;50.046;8.238;2023-10-13T01:58:41;17.13;;;6.60;;
66212;SDS011;53015;50.046;8.238;2023-10-13T02:01:06;15.02;;;6.03;;
66212;SDS011;53015;50.046;8.238;2023-10-13T02:03:32;11.93;;;5.57;;
66212;SDS011;53015;50.046;8.238;2023-10-13T02:05:57;15.63;;;6.47;;
66212;SDS011;53015;50.046;8.238;2023-10-13T02:08:24;11.70;;;6.07;;
66212;SDS011;53015;50.046;8.238;2023-10-13T02:10:50;14.45;;;6.53;;
66212;SDS011;53015;50.046;8.238;2023-10-13T02:13:16;13.45;;;5.82;;
66212;SDS011;53015;50.046;8.238;2023-10-13T02:15:43;14.60;;;5.78;;
66212;SDS011;53015;50.046;8.238;2023-10-13T02:18:10;9.80;;;5.82;;
66212;SDS011;53015;50.046;8.238;2023-10-13T02:20:38;9.20;;;5.40;;
66212;SDS011;53015;50.046;8.238;2023-10-13T02:23:03;12.70;;;6.10;;
66212;SDS011;53015;50.046;8.238;2023-10-13T02:25:29;8.63;;;5.78;;
66212;SDS011;53015;50.046;8.238;2023-10-13T02:27:54;11.07;;;5.80;;
66212;SDS011;53015;50.046;8.238;2023-10-13T02:30:20;10.88;;;5.35;;
66212;SDS011;53015;50.046;8.238;2023-10-13T02:32:47;9.18;;;5.78;;
66212;SDS011;53015;50.046;8.238;2023-10-13T02:35:12;8.18;;;5.45;;
66212;SDS011;53015;50.046;8.238;2023-10-13T02:37:38;10.40;;;6.30;;
66212;SDS011;53015;50.046;8.238;2023-10-13T02:40:03;17.58;;;5.65;;
66212;SDS011;53015;50.046;8.238;2023-10-13T02:42:29;12.88;;;5.88;;
66212;SDS011;53015;50.046;8.238;2023-10-13T02:44:55;10.45;;;5.20;;
66212;SDS011;53015;50.046;8.238;2023-10-13T02:47:20;8.05;;;5.28;;
66212;SDS011;53015;50.046;8.238;2023-10-13T02:49:47;7.97;;;4.70;;
66212;SDS011;53015;50.046;8.238;2023-10-13T02:52:13;9.27;;;5.63;;
66212;SDS011;53015;50.046;8.238;2023-10-13T02:54:38;8.77;;;5.18;;
66212;SDS011;53015;50.046;8.238;2023-10-13T02:57:04;12.00;;;5.57;;
66212;SDS011;53015;50.046;8.238;2023-10-13T02:59:30;7.05;;;5.38;;
66212;SDS011;53015;50.046;8.238;2023-10-13T03:01:56;8.93;;;5.30;;
66212;SDS011;53015;50.046;8.238;2023-10-13T03:04:22;10.32;;;5.80;;
66212;SDS011;53015;50.046;8.238;2023-10-13T03:06:48;9.15;;;5.35;;
66212;SDS011;53015;50.046;8.238;2023-10-13T03:09:14;9.98;;;5.78;;
66212;SDS011;53015;50.046;8.238;2023-10-13T03:11:39;9.98;;;5.50;;
66212;SDS011;53015;50.046;8.238;2023-10-13T03:14:05;10.38;;;5.82;;
66212;SDS011;53015;50.046;8.238;2023-10-13T03:16:31;8.48;;;5.38;;
66212;SDS011;53015;50.046;8.238;2023-10-13T03:18:56;12.50;;;6.07;;
66212;SDS011;53015;50.046;8.238;2023-10-13T03:21:22;8.18;;;5.50;;
66212;SDS011;53015;50.046;8.238;2023-10-13T03:23:49;10.98;;;6.28;;
66212;SDS011;53015;50.046;8.238;2023-10-13T03:26:15;10.10;;;5.90;;
66212;SDS011;53015;50.046;8.238;2023-10-13T03:28:40;10.43;;;5.28;;
66212;SDS011;53015;50.046;8.238;2023-10-13T03:31:06;10.52;;;5.60;;
66212;SDS011;53015;50.046;8.238;2023-10-13T03:33:31;10.27;;;5.70;;
66212;SDS011;53015;50.046;8.238;2023-10-13T03:35:57;10.20;;;5.53;;
66212;SDS011;53015;50.046;8.238;2023-10-13T03:38:22;9.38;;;5.47;;
66212;SDS011;53015;50.046;8.238;2023-10-13T03:40:50;11.38;;;5.63;;
66212;SDS011;53015;50.046;8.238;2023-10-13T03:43:15;10.13;;;4.85;;
66212;SDS011;53015;50.046;8.238;2023-10-13T03:45:42;9.88;;;5.38;;
66212;SDS011;53015;50.046;8.238;2023-10-13T03:48:09;9.65;;;4.97;;
66212;SDS011;53015;50.046;8.238;2023-10-13T03:50:36;10.85;;;5.00;;
66212;SDS011;53015;50.046;8.238;2023-10-13T03:53:02;10.48;;;5.15;;
66212;SDS011;53015;50.046;8.238;2023-10-13T03:55:28;11.15;;;5.45;;
66212;SDS011;53015;50.046;8.238;2023-10-13T03:57:54;11.10;;;5.65;;
66212;SDS011;53015;50.046;8.238;2023-10-13T04:00:20;7.20;;;5.05;;
66212;SDS011;53015;50.046;8.238;2023-10-13T04:02:46;7.30;;;5.15;;
66212;SDS011;53015;50.046;8.238;2023-10-13T04:05:11;10.48;;;5.20;;
66212;SDS011;53015;50.046;8.238;2023-10-13T04:07:36;7.65;;;5.40;;
66212;SDS011;53015;50.046;8.238;2023-10-13T04:10:02;10.20;;;4.97;;
66212;SDS011;53015;50.046;8.238;2023-10-13T04:12:28;6.97;;;5.00;;
66212;SDS011;53015;50.046;8.238;2023-10-13T04:14:55;9.10;;;5.45;;
66212;SDS011;53015;50.046;8.238;2023-10-13T04:17:20;10.38;;;4.93;;
66212;SDS011;53015;50.046;8.238;2023-10-13T04:19:46;6.35;;;4.47;;
66212;SDS011;53015;50.046;8.238;2023-10-13T04:22:11;9.90;;;4.82;;
66212;SDS011;53015;50.046;8.238;2023-10-13T04:24:37;8.27;;;4.85;;
66212;SDS011;53015;50.046;8.238;2023-10-13T04:27:02;9.40;;;5.00;;
66212;SDS011;53015;50.046;8.238;2023-10-13T04:29:28;14.85;;;5.38;;
66212;SDS011;53015;50.046;8.238;2023-10-13T04:31:56;8.82;;;4.80;;
66212;SDS011;53015;50.046;8.238;2023-10-13T04:34:22;9.05;;;4.78;;
66212;SDS011;53015;50.046;8.238;2023-10-13T04:36:47;10.73;;;5.32;;
66212;SDS011;53015;50.046;8.238;2023-10-13T04:39:13;11.60;;;6.53;;
66212;SDS011;53015;50.046;8.238;2023-10-13T04:41:39;12.18;;;6.97;;
66212;SDS011;53015;50.046;8.238;2023-10-13T04:44:05;11.95;;;7.53;;
66212;SDS011;53015;50.046;8.238;2023-10-13T04:46:31;13.05;;;6.90;;
66212;SDS011;53015;50.046;8.238;2023-10-13T04:48:58;8.65;;;5.85;;
66212;SDS011;53015;50.046;8.238;2023-10-13T04:51:23;8.02;;;5.43;;
66212;SDS011;53015;50.046;8.238;2023-10-13T04:53:49;11.65;;;5.53;;
66212;SDS011;53015;50.046;8.238;2023-10-13T04:56:14;8.82;;;5.75;;
66212;SDS011;53015;50.046;8.238;2023-10-13T04:58:39;8.95;;;6.22;;
66212;SDS011;53015;50.046;8.238;2023-10-13T05:01:05;8.38;;;5.43;;
66212;SDS011;53015;50.046;8.238;2023-10-13T05:03:30;10.02;;;5.88;;
66212;SDS011;53015;50.046;8.238;2023-10-13T05:05:57;8.68;;;5.18;;
66212;SDS011;53015;50.046;8.238;2023-10-13T05:08:23;10.32;;;5.75;;
66212;SDS011;53015;50.046;8.238;2023-10-13T05:10:48;11.00;;;6.03;;
66212;SDS011;53015;50.046;8.238;2023-10-13T05:13:14;10.85;;;5.65;;
66212;SDS011;53015;50.046;8.238;2023-10-13T05:15:43;11.43;;;6.00;;
66212;SDS011;53015;50.046;8.238;2023-10-13T05:18:09;9.27;;;5.72;;
66212;SDS011;53015;50.046;8.238;2023-10-13T05:20:34;10.95;;;6.03;;
66212;SDS011;53015;50.046;8.238;2023-10-13T05:23:01;9.45;;;5.95;;
66212;SDS011;53015;50.046;8.238;2023-10-13T05:25:27;11.70;;;7.03;;
66212;SDS011;53015;50.046;8.238;2023-10-13T05:27:52;12.85;;;6.07;;
66212;SDS011;53015;50.046;8.238;2023-10-13T05:30:18;14.10;;;6.00;;
66212;SDS011;53015;50.046;8.238;2023-10-13T05:32:43;11.68;;;5.55;;
66212;SDS011;53015;50.046;8.238;2023-10-13T05:35:09;10.93;;;6.68;;
66212;SDS011;53015;50.046;8.238;2023-10-13T05:37:35;12.00;;;5.63;;
66212;SDS011;53015;50.046;8.238;2023-10-13T05:40:02;9.57;;;5.95;;
66212;SDS011;53015;50.046;8.238;2023-10-13T05:42:27;8.95;;;6.32;;
66212;SDS011;53015;50.046;8.238;2023-10-13T05:44:53;10.25;;;6.32;;
66212;SDS011;53015;50.046;8.238;2023-10-13T05:47:18;13.65;;;6.65;;
66212;SDS011;53015;50.046;8.238;2023-10-13T05:49:44;10.50;;;6.40;;
66212;SDS011;53015;50.046;8.238;2023-10-13T05:52:09;12.52;;;6.63;;
66212;SDS011;53015;50.046;8.238;2023-10-13T05:54:35;12.20;;;7.13;;
66212;SDS011;53015;50.046;8.238;2023-10-13T05:57:02;10.88;;;6.40;;
66212;SDS011;53015;50.046;8.238;2023-10-13T05:59:27;9.68;;;6.22;;
66212;SDS011;53015;50.046;8.238;2023-10-13T06:01:54;10.70;;;6.20;;
66212;SDS011;53015;50.046;8.238;2023-10-13T06:04:19;13.80;;;6.10;;
66212;SDS011;53015;50.046;8.238;2023-10-13T06:06:44;9.88;;;5.95;;
66212;SDS011;53015;50.046;8.238;2023-10-13T06:09:10;12.82;;;6.80;;
66212;SDS011;53015;50.046;8.238;2023-10-13T06:11:36;12.93;;;7.57;;
66212;SDS011;53015;50.046;8.238;2023-10-13T06:14:03;9.32;;;6.32;;
66212;SDS011;53015;50.046;8.238;2023-10-13T06:16:28;11.80;;;6.10;;
66212;SDS011;53015;50.046;8.238;2023-10-13T06:18:54;12.93;;;6.43;;
66212;SDS011;53015;50.046;8.238;2023-10-13T06:21:20;13.45;;;6.22;;
66212;SDS011;53015;50.046;8.238;2023-10-13T06:23:46;8.35;;;5.53;;
66212;SDS011;53015;50.046;8.238;2023-10-13T06:26:11;9.15;;;5.43;;
66212;SDS011;53015;50.046;8.238;2023-10-13T06:28:37;12.68;;;6.13;;
66212;SDS011;53015;50.046;8.238;2023-10-13T06:31:04;9.80;;;5.97;;
66212;SDS011;53015;50.046;8.238;2023-10-13T06:33:30;10.73;;;5.70;;
66212;SDS011;53015;50.046;8.238;2023-10-13T06:35:56;11.32;;;6.03;;
66212;SDS011;53015;50.046;8.238;2023-10-13T06:38:22;10.75;;;5.90;;
66212;SDS011;53015;50.046;8.238;2023-10-13T06:40:47;12.80;;;5.88;;
66212;SDS011;53015;50.046;8.238;2023-10-13T06:43:13;8.30;;;5.80;;
66212;SDS011;53015;50.046;8.238;2023-10-13T06:45:39;12.35;;;6.38;;
66212;SDS011;53015;50.046;8.238;2023-10-13T06:48:06;11.07;;;6.55;;
66212;SDS011;53015;50.046;8.238;2023-10-13T06:50:32;10.82;;;6.53;;
66212;SDS011;53015;50.046;8.238;2023-10-13T06:52:58;12.55;;;5.88;;
66212;SDS011;53015;50.046;8.238;2023-10-13T06:55:23;12.45;;;6.45;;
66212;SDS011;53015;50.046;8.238;2023-10-13T06:57:49;8.00;;;5.97;;
66212;SDS011;53015;50.046;8.238;2023-10-13T07:00:14;10.05;;;6.30;;
66212;SDS011;53015;50.046;8.238;2023-10-13T07:02:40;8.55;;;5.90;;
66212;SDS011;53015;50.046;8.238;2023-10-13T07:05:07;13.50;;;6.90;;
66212;SDS011;53015;50.046;8.238;2023-10-13T07:07:33;13.10;;;6.40;;
66212;SDS011;53015;50.046;8.238;2023-10-13T07:09:58;16.15;;;6.43;;
66212;SDS011;53015;50.046;8.238;2023-10-13T07:12:24;17.33;;;9.90;;
66212;SDS011;53015;50.046;8.238;2023-10-13T07:14:49;12.00;;;6.47;;
66212;SDS011;53015;50.046;8.238;2023-10-13T07:17:15;14.45;;;6.40;;
66212;SDS011;53015;50.046;8.238;2023-10-13T07:19:40;12.23;;;6.38;;
66212;SDS011;53015;50.046;8.238;2023-10-13T07:22:07;12.77;;;6.53;;
66212;SDS011;53015;50.046;8.238;2023-10-13T07:24:33;12.75;;;6.70;;
66212;SDS011;53015;50.046;8.238;2023-10-13T07:26:59;20.65;;;6.68;;
66212;SDS011;53015;50.046;8.238;2023-10-13T07:29:24;12.90;;;6.30;;
66212;SDS011;53015;50.046;8.238;2023-10-13T07:31:50;15.02;;;6.72;;
66212;SDS011;53015;50.046;8.238;2023-10-13T07:34:15;10.00;;;6.00;;
66212;SDS011;53015;50.046;8.238;2023-10-13T07:36:41;17.02;;;6.53;;
66212;SDS011;53015;50.046;8.238;2023-10-13T07:39:07;10.63;;;5.97;;
66212;SDS011;53015;50.046;8.238;2023-10-13T07:41:33;13.63;;;6.13;;
66212;SDS011;53015;50.046;8.238;2023-10-13T07:43:58;11.82;;;6.38;;
66212;SDS011;53015;50.046;8.238;2023-10-13T07:46:24;11.10;;;5.72;;
66212;SDS011;53015;50.046;8.238;2023-10-13T07:48:50;10.32;;;5.88;;
66212;SDS011;53015;50.046;8.238;2023-10-13T07:51:15;10.55;;;6.25;;
66212;SDS011;53015;50.046;8.238;2023-10-13T07:53:40;18.17;;;6.05;;
66212;SDS011;53015;50.046;8.238;2023-10-13T07:56:08;14.55;;;6.35;;
66212;SDS011;53015;50.046;8.238;2023-10-13T07:58:34;16.27;;;5.85;;
66212;SDS011;53015;50.046;8.238;2023-10-13T08:01:00;14.73;;;6.13;;
66212;SDS011;53015;50.046;8.238;2023-10-13T08:03:25;15.18;;;6.32;;
66212;SDS011;53015;50.046;8.238;2023-10-13T08:05:51;15.82;;;5.38;;
66212;SDS011;53015;50.046;8.238;2023-10-13T08:08:18;12.15;;;5.95;;
66212;SDS011;53015;50.046;8.238;2023-10-13T08:10:43;12.57;;;4.57;;
66212;SDS011;53015;50.046;8.238;2023-10-13T08:13:10;12.02;;;5.57;;
66212;SDS011;53015;50.046;8.238;2023-10-13T08:15:35;10.07;;;5.15;;
66212;SDS011;53015;50.046;8.238;2023-10-13T08:18:01;15.20;;;5.45;;
66212;SDS011;53015;50.046;8.238;2023-10-13T08:20:26;12.55;;;4.63;;
66212;SDS011;53015;50.046;8.238;2023-10-13T08:22:52;14.55;;;5.90;;
66212;SDS011;53015;50.046;8.238;2023-10-13T08:25:17;10.60;;;4.70;;
66212;SDS011;53015;50.046;8.238;2023-10-13T08:27:43;14.18;;;5.40;;
66212;SDS011;53015;50.046;8.238;2023-10-13T08:30:10;11.68;;;5.13;;
66212;SDS011;53015;50.046;8.238;2023-10-13T08:32:36;15.40;;;5.28;;
66212;SDS011;53015;50.046;8.238;2023-10-13T08:35:02;12.20;;;4.85;;
66212;SDS011;53015;50.046;8.238;2023-10-13T08:37:29;13.50;;;5.07;;
66212;SDS011;53015;50.046;8.238;2023-10-13T08:39:56;16.35;;;5.00;;
66212;SDS011;53015;50.046;8.238;2023-10-13T08:42:22;8.23;;;4.57;;
66212;SDS011;53015;50.046;8.238;2023-10-13T08:44:50;14.32;;;5.18;;
66212;SDS011;53015;50.046;8.238;2023-10-13T08:47:17;9.57;;;5.30;;
66212;SDS011;53015;50.046;8.238;2023-10-13T08:49:43;12.40;;;4.78;;
66212;SDS011;53015;50.046;8.238;2023-10-13T08:52:10;11.60;;;5.07;;
66212;SDS011;53015;50.046;8.238;2023-10-13T08:54:39;9.40;;;4.82;;
66212;SDS011;53015;50.046;8.238;2023-10-13T08:57:05;9.10;;;5.18;;
66212;SDS011;53015;50.046;8.238;2023-10-13T08:59:30;14.32;;;5.18;;
66212;SDS011;53015;50.046;8.238;2023-10-13T09:01:56;11.13;;;4.68;;
66212;SDS011;53015;50.046;8.238;2023-10-13T09:04:23;9.18;;;4.85;;
66212;SDS011;53015;50.046;8.238;2023-10-13T09:06:49;13.48;;;5.53;;
66212;SDS011;53015;50.046;8.238;2023-10-13T09:09:16;12.70;;;5.05;;
66212;SDS011;53015;50.046;8.238;2023-10-13T09:11:41;16.83;;;5.38;;
66212;SDS011;53015;50.046;8.238;2023-10-13T09:14:12;13.68;;;5.18;;
66212;SDS011;53015;50.046;8.238;2023-10-13T09:16:38;11.80;;;4.88;;
66212;SDS011;53015;50.046;8.238;2023-10-13T09:19:04;11.80;;;5.20;;
66212;SDS011;53015;50.046;8.238;2023-10-13T09:21:30;12.20;;;5.60;;
66212;SDS011;53015;50.046;8.238;2023-10-13T09:24:03;9.00;;;4.93;;
66212;SDS011;53015;50.046;8.238;2023-10-13T09:26:33;24.70;;;7.63;;
66212;SDS011;53015;50.046;8.238;2023-10-13T09:28:58;36.78;;;10.18;;
66212;SDS011;53015;50.046;8.238;2023-10-13T09:31:24;12.52;;;5.68;;
66212;SDS011;53015;50.046;8.238;2023-10-13T09:33:49;12.32;;;5.80;;
66212;SDS011;53015;50.046;8.238;2023-10-13T09:36:15;16.27;;;6.00;;
66212;SDS011;53015;50.046;8.238;2023-10-13T09:38:42;16.77;;;6.57;;
66212;SDS011;53015;50.046;8.238;2023-10-13T09:41:08;17.05;;;6.60;;
66212;SDS011;53015;50.046;8.238;2023-10-13T09:43:34;13.60;;;5.38;;
66212;SDS011;53015;50.046;8.238;2023-10-13T09:46:00;11.38;;;5.15;;
66212;SDS011;53015;50.046;8.238;2023-10-13T09:48:26;10.52;;;5.18;;
66212;SDS011;53015;50.046;8.238;2023-10-13T09:50:57;10.38;;;4.88;;
66212;SDS011;53015;50.046;8.238;2023-10-13T09:53:27;14.90;;;6.30;;
66212;SDS011;53015;50.046;8.238;2023-10-13T09:55:56;13.02;;;6.32;;
66212;SDS011;53015;50.046;8.238;2023-10-13T09:58:27;19.58;;;6.57;;
66212;SDS011;53015;50.046;8.238;2023-10-13T10:00:56;25.45;;;6.70;;
66212;SDS011;53015;50.046;8.238;2023-10-13T10:03:24;18.80;;;7.05;;
66212;SDS011;53015;50.046;8.238;2023-10-13T10:05:56;27.58;;;7.50;;
66212;SDS011;53015;50.046;8.238;2023-10-13T10:08:25;17.38;;;6.40;;
66212;SDS011;53015;50.046;8.238;2023-10-13T10:10:56;13.85;;;6.28;;
66212;SDS011;53015;50.046;8.238;2023-10-13T10:13:26;13.82;;;4.95;;
66212;SDS011;53015;50.046;8.238;2023-10-13T10:16:00;11.93;;;5.72;;
66212;SDS011;53015;50.046;8.238;2023-10-13T10:18:33;12.88;;;5.50;;
66212;SDS011;53015;50.046;8.238;2023-10-13T10:21:03;11.05;;;5.43;;
66212;SDS011;53015;50.046;8.238;2023-10-13T10:23:30;14.43;;;5.13;;
66212;SDS011;53015;50.046;8.238;2023-10-13T10:25:57;11.73;;;5.13;;
66212;SDS011;53015;50.046;8.238;2023-10-13T10:28:37;9.43;;;4.95;;
66212;SDS011;53015;50.046;8.238;2023-10-13T10:31:04;11.50;;;4.68;;
66212;SDS011;53015;50.046;8.238;2023-10-13T10:33:30;16.23;;;6.82;;
66212;SDS011;53015;50.046;8.238;2023-10-13T10:35:58;14.98;;;5.65;;
66212;SDS011;53015;50.046;8.238;2023-10-13T10:38:25;14.25;;;5.65;;
66212;SDS011;53015;50.046;8.238;2023-10-13T10:40:51;10.10;;;5.35;;
66212;SDS011;53015;50.046;8.238;2023-10-13T10:43:19;11.63;;;5.38;;
66212;SDS011;53015;50.046;8.238;2023-10-13T10:45:47;10.90;;;5.50;;
66212;SDS011;53015;50.046;8.238;2023-10-13T10:48:13;7.93;;;4.72;;
66212;SDS011;53015;50.046;8.238;2023-10-13T10:50:38;9.70;;;5.10;;
66212;SDS011;53015;50.046;8.238;2023-10-13T10:53:04;8.70;;;4.75;;
66212;SDS011;53015;50.046;8.238;2023-10-13T10:55:30;7.38;;;4.65;;
66212;SDS011;53015;50.046;8.238;2023-10-13T10:57:58;10.48;;;5.13;;
66212;SDS011;53015;50.046;8.238;2023-10-13T11:00:26;7.80;;;4.90;;
66212;SDS011;53015;50.046;8.238;2023-10-13T11:02:54;10.00;;;5.25;;
66212;SDS011;53015;50.046;8.238;2023-10-13T11:05:20;10.68;;;4.88;;
66212;SDS011;53015;50.046;8.238;2023-10-13T11:07:45;10.27;;;5.53;;
66212;SDS011;53015;50.046;8.238;2023-10-13T11:10:11;12.43;;;5.03;;
66212;SDS011;53015;50.046;8.238;2023-10-13T11:12:38;8.32;;;5.15;;
66212;SDS011;53015;50.046;8.238;2023-10-13T11:15:03;8.40;;;4.82;;
66212;SDS011;53015;50.046;8.238;2023-10-13T11:17:31;10.45;;;4.70;;
66212;SDS011;53015;50.046;8.238;2023-10-13T11:19:57;7.28;;;4.40;;
66212;SDS011;53015;50.046;8.238;2023-10-13T11:22:23;11.02;;;5.05;;
66212;SDS011;53015;50.046;8.238;2023-10-13T11:24:48;13.20;;;5.30;;
66212;SDS011;53015;50.046;8.238;2023-10-13T11:27:14;7.63;;;4.80;;
66212;SDS011;53015;50.046;8.238;2023-10-13T11:29:40;11.25;;;4.72;;
66212;SDS011;53015;50.046;8.238;2023-10-13T11:32:05;7.90;;;4.30;;
66212;SDS011;53015;50.046;8.238;2023-10-13T11:34:32;8.25;;;4.63;;
66212;SDS011;53015;50.046;8.238;2023-10-13T11:36:57;10.38;;;5.18;;
66212;SDS011;53015;50.046;8.238;2023-10-13T11:39:23;9.40;;;4.28;;
66212;SDS011;53015;50.046;8.238;2023-10-13T11:41:49;6.63;;;4.35;;
66212;SDS011;53015;50.046;8.238;2023-10-13T11:44:14;8.55;;;4.75;;
66212;SDS011;53015;50.046;8.238;2023-10-13T11:46:41;12.70;;;3.83;;
66212;SDS011;53015;50.046;8.238;2023-10-13T11:49:07;6.85;;;4.70;;
66212;SDS011;53015;50.046;8.238;2023-10-13T11:51:35;7.32;;;4.35;;
66212;SDS011;53015;50.046;8.238;2023-10-13T11:54:00;9.95;;;5.72;;
66212;SDS011;53015;50.046;8.238;2023-10-13T11:56:26;9.23;;;4.68;;
66212;SDS011;53015;50.046;8.238;2023-10-13T11:58:51;7.70;;;4.22;;
66212;SDS011;53015;50.046;8.238;2023-10-13T12:01:17;13.57;;;4.43;;
66212;SDS011;53015;50.046;8.238;2023-10-13T12:03:43;5.43;;;3.78;;
66212;SDS011;53015;50.046;8.238;2023-10-13T12:06:10;9.73;;;4.40;;
66212;SDS011;53015;50.046;8.238;2023-10-13T12:08:37;8.27;;;4.30;;
66212;SDS011;53015;50.046;8.238;2023-10-13T12:11:03;9.20;;;4.20;;
66212;SDS011;53015;50.046;8.238;2023-10-13T12:13:28;7.53;;;4.07;;
66212;SDS011;53015;50.046;8.238;2023-10-13T12:15:54;11.38;;;3.95;;
66212;SDS011;53015;50.046;8.238;2023-10-13T12:18:19;10.27;;;4.10;;
66212;SDS011;53015;50.046;8.238;2023-10-13T12:20:45;8.05;;;3.88;;
66212;SDS011;53015;50.046;8.238;2023-10-13T12:23:10;8.30;;;4.05;;
66212;SDS011;53015;50.046;8.238;2023-10-13T12:25:38;7.00;;;4.20;;
66212;SDS011;53015;50.046;8.238;2023-10-13T12:28:04;9.90;;;4.20;;
66212;SDS011;53015;50.046;8.238;2023-10-13T12:30:30;8.02;;;3.95;;
66212;SDS011;53015;50.046;8.238;2023-10-13T12:32:55;5.22;;;3.75;;
66212;SDS011;53015;50.046;8.238;2023-10-13T12:35:21;7.40;;;4.05;;
66212;SDS011;53015;50.046;8.238;2023-10-13T12:37:46;14.88;;;4.03;;
66212;SDS011;53015;50.046;8.238;2023-10-13T12:40:12;9.10;;;4.57;;
66212;SDS011;53015;50.046;8.238;2023-10-13T12:42:40;8.93;;;4.50;;
66212;SDS011;53015;50.046;8.238;2023-10-13T12:45:06;10.35;;;4.60;;
66212;SDS011;53015;50.046;8.238;2023-10-13T12:47:32;6.90;;;4.40;;
66212;SDS011;53015;50.046;8.238;2023-10-13T12:49:57;8.30;;;4.47;;
66212;SDS011;53015;50.046;8.238;2023-10-13T12:52:23;8.40;;;4.63;;
66212;SDS011;53015;50.046;8.238;2023-10-13T12:54:48;12.35;;;4.47;;
66212;SDS011;53015;50.046;8.238;2023-10-13T12:57:14;6.93;;;4.10;;
66212;SDS011;53015;50.046;8.238;2023-10-13T12:59:41;6.60;;;3.95;;
66212;SDS011;53015;50.046;8.238;2023-10-13T13:02:06;5.93;;;3.60;;
66212;SDS011;53015;50.046;8.238;2023-10-13T13:04:32;8.40;;;3.92;;
66212;SDS011;53015;50.046;8.238;2023-10-13T13:06:58;11.90;;;4.22;;
66212;SDS011;53015;50.046;8.238;2023-10-13T13:09:23;6.30;;;4.50;;
66212;SDS011;53015;50.046;8.238;2023-10-13T13:11:48;7.57;;;3.83;;
66212;SDS011;53015;50.046;8.238;2023-10-13T13:14:14;7.30;;;3.95;;
66212;SDS011;53015;50.046;8.238;2023-10-13T13:16:41;9.70;;;3.63;;
66212;SDS011;53015;50.046;8.238;2023-10-13T13:19:06;6.90;;;3.67;;
66212;SDS011;53015;50.046;8.238;2023-10-13T13:21:32;5.47;;;3.40;;
66212;SDS011;53015;50.046;8.238;2023-10-13T13:23:57;7.20;;;3.97;;
66212;SDS011;53015;50.046;8.238;2023-10-13T13:26:23;10.02;;;3.83;;
66212;SDS011;53015;50.046;8.238;2023-10-13T13:28:48;9.25;;;4.03;;
66212;SDS011;53015;50.046;8.238;2023-10-13T13:31:14;7.43;;;3.95;;
66212;SDS011;53015;50.046;8.238;2023-10-13T13:33:41;8.63;;;3.70;;
66212;SDS011;53015;50.046;8.238;2023-10-13T13:36:07;5.93;;;3.63;;
66212;SDS011;53015;50.046;8.238;2023-10-13T13:38:32;8.55;;;3.88;;
66212;SDS011;53015;50.046;8.238;2023-10-13T13:40:58;9.45;;;3.60;;
66212;SDS011;53015;50.046;8.238;2023-10-13T13:43:24;6.45;;;3.95;;
66212;SDS011;53015;50.046;8.238;2023-10-13T13:45:49;7.22;;;3.70;;
66212;SDS011;53015;50.046;8.238;2023-10-13T13:48:15;7.93;;;3.53;;
66212;SDS011;53015;50.046;8.238;2023-10-13T13:50:41;10.50;;;3.95;;
66212;SDS011;53015;50.046;8.238;2023-10-13T13:53:09;7.85;;;3.95;;
66212;SDS011;53015;50.046;8.238;2023-10-13T13:55:34;7.47;;;3.85;;
66212;SDS011;53015;50.046;8.238;2023-10-13T13:58:00;7.25;;;3.53;;
66212;SDS011;53015;50.046;8.238;2023-10-13T14:00:26;6.43;;;3.65;;
66212;SDS011;53015;50.046;8.238;2023-10-13T14:02:51;7.93;;;4.05;;
66212;SDS011;53015;50.046;8.238;2023-10-13T14:05:17;9.27;;;3.83;;
66212;SDS011;53015;50.046;8.238;2023-10-13T14:07:44;8.95;;;4.20;;
66212;SDS011;53015;50.046;8.238;2023-10-13T14:10:10;11.15;;;3.97;;
66212;SDS011;53015;50.046;8.238;2023-10-13T14:12:35;5.93;;;3.78;;
66212;SDS011;53015;50.046;8.238;2023-10-13T14:15:03;10.45;;;3.83;;
66212;SDS011;53015;50.046;8.238;2023-10-13T14:17:29;7.10;;;3.75;;
66212;SDS011;53015;50.046;8.238;2023-10-13T14:19:55;7.30;;;4.18;;
66212;SDS011;53015;50.046;8.238;2023-10-13T14:22:21;7.82;;;3.42;;
66212;SDS011;53015;50.046;8.238;2023-10-13T14:24:48;7.97;;;3.97;;
66212;SDS011;53015;50.046;8.238;2023-10-13T14:27:14;6.80;;;3.60;;
66212;SDS011;53015;50.046;8.238;2023-10-13T14:29:39;14.00;;;4.55;;
66212;SDS011;53015;50.046;8.238;2023-10-13T14:32:04;8.30;;;4.38;;